createdAt,value
2017-08-26T00:03:00.202Z,18.49
2017-08-26T00:07:57.088Z,18.40
2017-08-26T00:12:53.099Z,18.44
2017-08-26T00:17:48.883Z,18.37
2017-08-26T00:22:44.988Z,18.41
2017-08-26T00:27:40.914Z,18.44
2017-08-26T00:32:36.881Z,18.49
2017-08-26T00:37:33.311Z,18.60
2017-08-26T00:42:29.273Z,18.58
2017-08-26T00:47:26.154Z,18.47
2017-08-26T00:52:21.516Z,18.33
2017-08-26T00:57:17.751Z,18.43
2017-08-26T01:02:14.441Z,18.34
2017-08-26T01:07:09.939Z,18.43
2017-08-26T01:12:05.887Z,18.41
2017-08-26T01:17:02.110Z,18.40
2017-08-26T01:21:58.092Z,18.43
2017-08-26T01:26:54.012Z,18.34
2017-08-26T01:31:49.968Z,18.35
2017-08-26T01:36:47.387Z,18.41
2017-08-26T01:41:42.962Z,18.35
2017-08-26T01:46:40.155Z,18.43
2017-08-26T01:51:36.759Z,18.40
2017-08-26T01:56:33.637Z,18.22
2017-08-26T02:01:29.080Z,18.22
2017-08-26T02:06:25.114Z,18.13
2017-08-26T02:11:21.251Z,18.23
2017-08-26T02:16:17.194Z,18.10
2017-08-26T02:21:12.801Z,18.25
2017-08-26T02:26:09.793Z,18.33
2017-08-26T02:31:05.422Z,18.52
2017-08-26T02:36:01.257Z,18.40
2017-08-26T02:40:57.392Z,18.31
2017-08-26T02:45:53.297Z,18.23
2017-08-26T02:50:49.097Z,18.28
2017-08-26T02:55:45.951Z,18.35
2017-08-26T03:00:41.580Z,18.37
2017-08-26T03:05:38.443Z,18.28
2017-08-26T03:10:35.150Z,18.34
2017-08-26T03:15:30.746Z,18.18
2017-08-26T03:20:27.682Z,18.15
2017-08-26T03:25:23.257Z,18.23
2017-08-26T03:30:20.083Z,18.19
2017-08-26T03:35:16.174Z,18.19
2017-08-26T03:40:12.078Z,18.16
2017-08-26T03:45:08.872Z,18.10
2017-08-26T03:50:05.705Z,17.92
2017-08-26T03:55:01.285Z,17.97
2017-08-26T03:59:57.997Z,18.01
2017-08-26T04:04:53.544Z,18.03
2017-08-26T04:09:49.356Z,17.94
2017-08-26T04:14:46.251Z,18.03
2017-08-26T04:19:41.920Z,18.16
2017-08-26T04:24:38.936Z,17.98
2017-08-26T04:29:34.870Z,18.04
2017-08-26T04:34:31.135Z,18.00
2017-08-26T04:39:27.199Z,18.10
2017-08-26T04:44:22.983Z,17.94
2017-08-26T04:49:18.677Z,18.03
2017-08-26T04:54:14.589Z,17.94
2017-08-26T04:59:10.292Z,17.85
2017-08-26T05:04:06.282Z,17.79
2017-08-26T05:09:04.078Z,17.82
2017-08-26T05:13:59.777Z,17.86
2017-08-26T05:18:55.902Z,18.03
2017-08-26T05:23:51.863Z,18.22
2017-08-26T05:28:47.728Z,18.11
2017-08-26T05:33:43.919Z,18.10
2017-08-26T05:38:39.933Z,18.07
2017-08-26T05:43:35.876Z,18.15
2017-08-26T05:48:32.271Z,18.25
2017-08-26T05:53:29.194Z,18.50
2017-08-26T05:58:24.751Z,18.45
2017-08-26T06:03:20.782Z,18.73
2017-08-26T06:08:16.990Z,18.78
2017-08-26T06:13:12.886Z,18.78
2017-08-26T06:18:09.164Z,18.84
2017-08-26T06:23:05.913Z,18.92
2017-08-26T06:28:03.022Z,19.02
2017-08-26T06:32:58.811Z,19.09
2017-08-26T06:37:54.784Z,19.15
2017-08-26T06:42:50.721Z,19.21
2017-08-26T06:47:49.068Z,19.39
2017-08-26T06:52:44.838Z,19.39
2017-08-26T06:57:40.936Z,19.55
2017-08-26T07:02:37.030Z,19.62
2017-08-26T07:07:33.200Z,19.77
2017-08-26T07:12:29.459Z,19.95
2017-08-26T07:17:25.431Z,20.19
2017-08-26T07:22:21.558Z,20.28
2017-08-26T07:27:17.471Z,20.36
2017-08-26T07:32:13.588Z,20.41
2017-08-26T07:37:09.825Z,20.74
2017-08-26T07:42:06.538Z,21.00
2017-08-26T07:47:02.625Z,21.07
2017-08-26T07:51:58.566Z,21.14
2017-08-26T07:56:55.259Z,21.42
2017-08-26T08:01:51.288Z,21.30
2017-08-26T08:06:47.816Z,21.72
2017-08-26T08:11:44.605Z,22.44
2017-08-26T08:16:41.708Z,22.43
2017-08-26T08:21:37.675Z,22.76
2017-08-26T08:26:35.256Z,23.20
2017-08-26T08:31:31.063Z,22.91
2017-08-26T08:36:27.649Z,22.57
2017-08-26T08:41:24.474Z,22.15
2017-08-26T08:46:19.788Z,22.10
2017-08-26T08:51:15.874Z,22.26
2017-08-26T08:56:12.038Z,22.38
2017-08-26T09:01:08.181Z,22.54
2017-08-26T09:06:04.470Z,22.57
2017-08-26T09:11:00.712Z,22.57
2017-08-26T09:15:56.889Z,22.96
2017-08-26T09:20:54.165Z,23.06
2017-08-26T09:25:49.897Z,23.03
2017-08-26T09:30:46.111Z,23.23
2017-08-26T09:35:42.687Z,23.21
2017-08-26T09:40:39.414Z,23.31
2017-08-26T09:45:35.648Z,23.32
2017-08-26T09:50:32.160Z,23.41
2017-08-26T09:55:30.204Z,23.74
2017-08-26T10:00:26.085Z,24.28
2017-08-26T10:05:22.636Z,24.47
2017-08-26T10:10:18.681Z,24.51
2017-08-26T10:15:14.496Z,24.32
2017-08-26T10:20:10.414Z,24.30
2017-08-26T10:25:06.691Z,24.21
2017-08-26T10:30:02.601Z,24.08
2017-08-26T10:34:59.511Z,23.92
2017-08-26T10:39:55.048Z,24.05
2017-08-26T10:44:51.672Z,24.24
2017-08-26T10:49:47.966Z,24.39
2017-08-26T10:54:46.015Z,24.65
2017-08-26T10:59:42.621Z,24.93
2017-08-26T11:04:39.809Z,24.92
2017-08-26T11:09:35.483Z,24.99
2017-08-26T11:14:32.553Z,24.89
2017-08-26T11:19:27.896Z,25.03
2017-08-26T11:24:25.330Z,24.95
2017-08-26T11:29:21.153Z,25.13
2017-08-26T11:34:18.244Z,25.33
2017-08-26T11:39:17.867Z,24.93
2017-08-26T11:44:14.453Z,25.11
2017-08-26T11:49:11.851Z,25.35
2017-08-26T11:54:09.656Z,25.50
2017-08-26T11:59:05.095Z,25.43
2017-08-26T12:04:00.971Z,25.41
2017-08-26T12:08:56.804Z,25.23
2017-08-26T12:13:53.848Z,25.08
2017-08-26T12:18:49.925Z,25.18
2017-08-26T12:23:47.317Z,25.35
2017-08-26T12:28:44.101Z,25.46
2017-08-26T12:33:39.874Z,25.54
2017-08-26T12:38:35.839Z,25.54
2017-08-26T12:43:31.616Z,25.50
2017-08-26T12:48:27.142Z,25.44
2017-08-26T12:53:23.362Z,25.22
2017-08-26T12:58:19.594Z,25.36
2017-08-26T13:03:15.430Z,25.33
2017-08-26T13:08:11.110Z,25.21
2017-08-26T13:13:06.828Z,25.17
2017-08-26T13:18:02.840Z,25.22
2017-08-26T13:22:59.048Z,25.29
2017-08-26T13:27:56.095Z,25.38
2017-08-26T13:32:52.023Z,25.22
2017-08-26T13:37:48.725Z,25.35
2017-08-26T13:42:44.763Z,25.40
2017-08-26T13:47:40.721Z,25.47
2017-08-26T13:52:37.356Z,25.43
2017-08-26T13:57:33.837Z,25.33
2017-08-26T14:02:30.453Z,25.14
2017-08-26T14:07:26.015Z,25.32
2017-08-26T14:12:23.234Z,25.06
2017-08-26T14:17:18.499Z,25.17
2017-08-26T14:22:14.408Z,24.96
2017-08-26T14:27:10.324Z,24.74
2017-08-26T14:32:07.179Z,24.84
2017-08-26T14:37:03.315Z,24.88
2017-08-26T14:41:59.475Z,24.86
2017-08-26T14:46:55.564Z,24.95
2017-08-26T14:51:51.612Z,24.88
2017-08-26T14:56:47.638Z,24.88
2017-08-26T15:01:43.856Z,25.01
2017-08-26T15:06:39.986Z,25.01
2017-08-26T15:11:35.853Z,24.95
2017-08-26T15:16:32.507Z,24.77
2017-08-26T15:21:29.282Z,24.74
2017-08-26T15:26:26.241Z,24.60
2017-08-26T15:31:22.126Z,24.60
2017-08-26T15:36:19.057Z,24.47
2017-08-26T15:41:15.089Z,24.51
2017-08-26T15:46:11.285Z,24.50
2017-08-26T15:51:07.482Z,24.55
2017-08-26T15:56:03.560Z,24.45
2017-08-26T16:00:59.598Z,24.66
2017-08-26T16:05:56.837Z,24.70
2017-08-26T16:10:53.548Z,24.66
2017-08-26T16:15:50.033Z,24.51
2017-08-26T16:20:45.541Z,24.38
2017-08-26T16:25:41.160Z,24.36
2017-08-26T16:30:37.428Z,24.24
2017-08-26T16:35:34.220Z,24.21
2017-08-26T16:40:29.769Z,24.13
2017-08-26T16:45:25.631Z,24.06
2017-08-26T16:50:21.657Z,23.99
2017-08-26T16:55:17.485Z,23.96
2017-08-26T17:00:14.477Z,23.87
2017-08-26T17:05:10.092Z,23.78
2017-08-26T17:10:05.991Z,23.76
2017-08-26T17:15:02.296Z,23.71
2017-08-26T17:19:58.145Z,23.63
2017-08-26T17:24:53.988Z,23.63
2017-08-26T17:29:49.778Z,23.68
2017-08-26T17:34:45.681Z,23.58
2017-08-26T17:39:41.388Z,23.63
2017-08-26T17:44:37.231Z,23.50
2017-08-26T17:49:33.056Z,23.31
2017-08-26T17:54:30.030Z,23.28
2017-08-26T17:59:26.708Z,23.21
2017-08-26T18:04:23.222Z,23.18
2017-08-26T18:09:18.707Z,23.03
2017-08-26T18:14:15.833Z,22.90
2017-08-26T18:19:12.407Z,22.83
2017-08-26T18:24:09.152Z,22.84
2017-08-26T18:29:04.766Z,22.57
2017-08-26T18:34:01.757Z,22.55
2017-08-26T18:38:57.140Z,22.30
2017-08-26T18:43:54.049Z,22.25
2017-08-26T18:48:50.593Z,22.13
2017-08-26T18:53:47.072Z,22.00
2017-08-26T18:58:42.301Z,21.85
2017-08-26T19:03:39.519Z,21.77
2017-08-26T19:08:35.093Z,21.79
2017-08-26T19:13:30.999Z,21.76
2017-08-26T19:18:27.683Z,21.60
2017-08-26T19:23:23.141Z,21.64
2017-08-26T19:28:19.895Z,21.64
2017-08-26T19:33:15.361Z,21.48
2017-08-26T19:38:12.136Z,21.45
2017-08-26T19:43:07.617Z,21.32
2017-08-26T19:48:03.540Z,21.27
2017-08-26T19:52:59.373Z,21.24
2017-08-26T19:57:55.610Z,21.12
2017-08-26T20:02:52.423Z,20.97
2017-08-26T20:07:47.830Z,20.93
2017-08-26T20:12:44.635Z,20.85
2017-08-26T20:17:40.750Z,20.92
2017-08-26T20:22:36.224Z,20.80
2017-08-26T20:27:33.091Z,20.77
2017-08-26T20:32:28.600Z,20.70
2017-08-26T20:37:25.867Z,20.56
2017-08-26T20:42:23.290Z,20.56
2017-08-26T20:47:18.373Z,20.44
2017-08-26T20:52:14.390Z,20.44
2017-08-26T20:57:11.200Z,20.43
2017-08-26T21:02:07.862Z,20.47
2017-08-26T21:07:03.243Z,20.31
2017-08-26T21:11:58.974Z,20.31
2017-08-26T21:16:54.700Z,20.24
2017-08-26T21:21:50.717Z,20.18
2017-08-26T21:26:47.930Z,20.07
2017-08-26T21:31:43.457Z,20.07
2017-08-26T21:36:39.460Z,20.10
2017-08-26T21:41:35.056Z,19.94
2017-08-26T21:46:30.856Z,19.99
2017-08-26T21:51:26.737Z,19.95
2017-08-26T21:56:23.841Z,19.69
2017-08-26T22:01:19.393Z,19.74
2017-08-26T22:06:15.636Z,19.73
2017-08-26T22:11:11.619Z,19.62
2017-08-26T22:16:07.467Z,19.58
2017-08-26T22:21:03.226Z,19.63
2017-08-26T22:25:59.321Z,19.52
2017-08-26T22:30:56.466Z,19.54
2017-08-26T22:35:52.038Z,19.47
2017-08-26T22:40:47.895Z,19.62
2017-08-26T22:45:44.324Z,19.54
2017-08-26T22:50:40.130Z,19.40
2017-08-26T22:55:35.876Z,19.40
2017-08-26T23:00:32.057Z,19.36
2017-08-26T23:05:27.841Z,19.36
2017-08-26T23:10:23.701Z,19.45
2017-08-26T23:15:19.963Z,19.39
2017-08-26T23:20:16.876Z,19.37
2017-08-26T23:25:12.219Z,19.16
2017-08-26T23:30:08.017Z,19.47
2017-08-26T23:35:03.975Z,19.45
2017-08-26T23:39:59.872Z,19.41
2017-08-26T23:44:56.049Z,19.47
2017-08-26T23:49:52.874Z,19.37
2017-08-26T23:54:48.296Z,19.16
2017-08-26T23:59:44.500Z,19.39
